CYWA

Petawawa Airport

Petawawa, Ontario, Canada
METAR CYWA 212000Z AUTO 13004KT 9SM BKN020 BKN056 00/M06 A3010 RMK SLP200
Observed Flight Rules
Jan-21 @ 20:00 UTC (27 minutes ago) Marginal Visual Flight Rules
Wind Visibility Clouds
130° at 4 knots 9 miles
  • Broken at 2,000' AGL
  • Broken at 5,600' AGL
Temperatures Readings
Current 0°C / 32°F
Dewpoint -6°C / 21°F
Humidity 64%
Altimeter 30.1" Hg
Pressure 1020 hPa
Elevation 130
METAR CYWA 212000Z AUTO 13004KT 9SM BKN020 BKN056 00/M06 A3010 RMK SLP200
Observed Flight Rules
Jan-21 @ 20:00 UTC
(27 minutes ago)
MVFR
Wind Visibility
130° at 4 knots 9 miles
Clouds
  • Broken at 2,000' AGL
  • Broken at 5,600' AGL
Temperature Dewpoint
0°C / 32°F -6°C / 21°F
Humidity Altimeter Pressure
64% 30.1" Hg 1020 hPa